sensor_id;sensor_type;location;lat;lon;timestamp;P1;durP1;ratioP1;P2;durP2;ratioP2
12267;SDS011;6196;48.398;11.736;2023-02-04T00:00:10;3.27;;;1.90;;
12267;SDS011;6196;48.398;11.736;2023-02-04T00:02:40;2.83;;;2.57;;
12267;SDS011;6196;48.398;11.736;2023-02-04T00:05:08;2.77;;;2.10;;
12267;SDS011;6196;48.398;11.736;2023-02-04T00:07:36;4.53;;;2.33;;
12267;SDS011;6196;48.398;11.736;2023-02-04T00:10:06;4.60;;;2.13;;
12267;SDS011;6196;48.398;11.736;2023-02-04T00:12:34;7.17;;;2.70;;
12267;SDS011;6196;48.398;11.736;2023-02-04T00:15:02;4.20;;;2.13;;
12267;SDS011;6196;48.398;11.736;2023-02-04T00:17:29;4.77;;;1.90;;
12267;SDS011;6196;48.398;11.736;2023-02-04T00:19:56;5.10;;;2.20;;
12267;SDS011;6196;48.398;11.736;2023-02-04T00:22:23;3.90;;;2.10;;
12267;SDS011;6196;48.398;11.736;2023-02-04T00:24:53;4.83;;;2.00;;
12267;SDS011;6196;48.398;11.736;2023-02-04T00:27:20;7.40;;;2.80;;
12267;SDS011;6196;48.398;11.736;2023-02-04T00:29:47;6.10;;;2.33;;
12267;SDS011;6196;48.398;11.736;2023-02-04T00:32:13;8.43;;;2.50;;
12267;SDS011;6196;48.398;11.736;2023-02-04T00:34:41;6.03;;;2.20;;
12267;SDS011;6196;48.398;11.736;2023-02-04T00:37:07;6.20;;;2.30;;
12267;SDS011;6196;48.398;11.736;2023-02-04T00:39:34;6.47;;;2.17;;
12267;SDS011;6196;48.398;11.736;2023-02-04T00:42:01;6.27;;;2.50;;
12267;SDS011;6196;48.398;11.736;2023-02-04T00:44:30;6.43;;;2.50;;
12267;SDS011;6196;48.398;11.736;2023-02-04T00:46:57;10.73;;;2.97;;
12267;SDS011;6196;48.398;11.736;2023-02-04T00:49:24;8.63;;;2.67;;
12267;SDS011;6196;48.398;11.736;2023-02-04T00:51:51;6.33;;;2.90;;
12267;SDS011;6196;48.398;11.736;2023-02-04T00:54:18;13.47;;;3.37;;
12267;SDS011;6196;48.398;11.736;2023-02-04T00:56:45;4.90;;;2.27;;
12267;SDS011;6196;48.398;11.736;2023-02-04T00:59:12;7.50;;;2.83;;
12267;SDS011;6196;48.398;11.736;2023-02-04T01:01:39;6.73;;;3.40;;
12267;SDS011;6196;48.398;11.736;2023-02-04T01:04:06;9.33;;;3.37;;
12267;SDS011;6196;48.398;11.736;2023-02-04T01:06:33;6.07;;;2.70;;
12267;SDS011;6196;48.398;11.736;2023-02-04T01:09:00;5.77;;;2.83;;
12267;SDS011;6196;48.398;11.736;2023-02-04T01:11:28;7.53;;;3.20;;
12267;SDS011;6196;48.398;11.736;2023-02-04T01:13:56;9.67;;;3.13;;
12267;SDS011;6196;48.398;11.736;2023-02-04T01:16:24;9.33;;;3.53;;
12267;SDS011;6196;48.398;11.736;2023-02-04T01:18:51;9.77;;;2.83;;
12267;SDS011;6196;48.398;11.736;2023-02-04T01:21:21;10.10;;;3.23;;
12267;SDS011;6196;48.398;11.736;2023-02-04T01:23:48;6.13;;;2.93;;
12267;SDS011;6196;48.398;11.736;2023-02-04T01:26:16;7.60;;;3.00;;
12267;SDS011;6196;48.398;11.736;2023-02-04T01:28:44;6.00;;;3.00;;
12267;SDS011;6196;48.398;11.736;2023-02-04T01:31:12;7.87;;;3.17;;
12267;SDS011;6196;48.398;11.736;2023-02-04T01:33:39;7.67;;;2.90;;
12267;SDS011;6196;48.398;11.736;2023-02-04T01:36:06;6.60;;;2.83;;
12267;SDS011;6196;48.398;11.736;2023-02-04T01:38:33;5.23;;;3.03;;
12267;SDS011;6196;48.398;11.736;2023-02-04T01:41:00;7.90;;;3.40;;
12267;SDS011;6196;48.398;11.736;2023-02-04T01:43:27;10.40;;;4.27;;
12267;SDS011;6196;48.398;11.736;2023-02-04T01:45:54;8.47;;;3.53;;
12267;SDS011;6196;48.398;11.736;2023-02-04T01:48:21;12.07;;;3.10;;
12267;SDS011;6196;48.398;11.736;2023-02-04T01:50:49;8.57;;;3.43;;
12267;SDS011;6196;48.398;11.736;2023-02-04T01:53:21;14.63;;;3.70;;
12267;SDS011;6196;48.398;11.736;2023-02-04T01:55:50;8.33;;;3.30;;
12267;SDS011;6196;48.398;11.736;2023-02-04T01:58:18;11.67;;;3.10;;
12267;SDS011;6196;48.398;11.736;2023-02-04T02:00:45;11.73;;;3.70;;
12267;SDS011;6196;48.398;11.736;2023-02-04T02:03:12;11.07;;;3.00;;
12267;SDS011;6196;48.398;11.736;2023-02-04T02:05:40;12.37;;;3.30;;
12267;SDS011;6196;48.398;11.736;2023-02-04T02:08:11;9.90;;;3.13;;
12267;SDS011;6196;48.398;11.736;2023-02-04T02:10:39;10.77;;;3.30;;
12267;SDS011;6196;48.398;11.736;2023-02-04T02:13:14;12.67;;;3.57;;
12267;SDS011;6196;48.398;11.736;2023-02-04T02:15:44;12.33;;;3.30;;
12267;SDS011;6196;48.398;11.736;2023-02-04T02:18:12;11.03;;;3.70;;
12267;SDS011;6196;48.398;11.736;2023-02-04T02:20:39;10.20;;;3.63;;
12267;SDS011;6196;48.398;11.736;2023-02-04T02:26:15;8.20;;;3.17;;
12267;SDS011;6196;48.398;11.736;2023-02-04T02:28:43;12.57;;;3.20;;
12267;SDS011;6196;48.398;11.736;2023-02-04T02:31:13;12.23;;;3.07;;
12267;SDS011;6196;48.398;11.736;2023-02-04T02:33:41;10.07;;;3.20;;
12267;SDS011;6196;48.398;11.736;2023-02-04T02:36:08;9.10;;;2.90;;
12267;SDS011;6196;48.398;11.736;2023-02-04T02:38:36;7.23;;;2.80;;
12267;SDS011;6196;48.398;11.736;2023-02-04T02:41:03;7.93;;;2.80;;
12267;SDS011;6196;48.398;11.736;2023-02-04T02:43:30;9.10;;;2.70;;
12267;SDS011;6196;48.398;11.736;2023-02-04T02:45:57;11.50;;;3.03;;
12267;SDS011;6196;48.398;11.736;2023-02-04T02:48:26;7.27;;;2.90;;
12267;SDS011;6196;48.398;11.736;2023-02-04T02:50:53;13.17;;;3.07;;
12267;SDS011;6196;48.398;11.736;2023-02-04T02:53:20;7.63;;;2.53;;
12267;SDS011;6196;48.398;11.736;2023-02-04T02:55:47;15.37;;;3.77;;
12267;SDS011;6196;48.398;11.736;2023-02-04T02:58:25;10.63;;;2.90;;
12267;SDS011;6196;48.398;11.736;2023-02-04T03:00:59;9.20;;;3.30;;
12267;SDS011;6196;48.398;11.736;2023-02-04T03:03:37;10.00;;;3.03;;
12267;SDS011;6196;48.398;11.736;2023-02-04T03:06:24;11.07;;;2.80;;
12267;SDS011;6196;48.398;11.736;2023-02-04T03:08:52;7.93;;;2.90;;
12267;SDS011;6196;48.398;11.736;2023-02-04T03:11:22;10.40;;;2.93;;
12267;SDS011;6196;48.398;11.736;2023-02-04T03:13:51;8.37;;;2.97;;
12267;SDS011;6196;48.398;11.736;2023-02-04T03:16:18;6.13;;;2.97;;
12267;SDS011;6196;48.398;11.736;2023-02-04T03:18:45;6.67;;;2.53;;
12267;SDS011;6196;48.398;11.736;2023-02-04T03:21:13;10.63;;;2.90;;
12267;SDS011;6196;48.398;11.736;2023-02-04T03:23:40;11.40;;;2.40;;
12267;SDS011;6196;48.398;11.736;2023-02-04T03:26:06;6.07;;;2.30;;
12267;SDS011;6196;48.398;11.736;2023-02-04T03:28:37;6.90;;;2.27;;
12267;SDS011;6196;48.398;11.736;2023-02-04T03:31:05;11.27;;;2.60;;
12267;SDS011;6196;48.398;11.736;2023-02-04T03:33:32;8.50;;;2.87;;
12267;SDS011;6196;48.398;11.736;2023-02-04T03:36:01;9.30;;;2.60;;
12267;SDS011;6196;48.398;11.736;2023-02-04T03:38:27;7.83;;;2.53;;
12267;SDS011;6196;48.398;11.736;2023-02-04T03:40:54;11.17;;;2.27;;
12267;SDS011;6196;48.398;11.736;2023-02-04T03:43:21;6.73;;;2.47;;
12267;SDS011;6196;48.398;11.736;2023-02-04T03:45:48;7.37;;;2.17;;
12267;SDS011;6196;48.398;11.736;2023-02-04T03:48:15;7.03;;;2.63;;
12267;SDS011;6196;48.398;11.736;2023-02-04T03:50:42;10.40;;;2.90;;
12267;SDS011;6196;48.398;11.736;2023-02-04T03:53:09;9.73;;;2.27;;
12267;SDS011;6196;48.398;11.736;2023-02-04T03:55:36;8.87;;;2.50;;
12267;SDS011;6196;48.398;11.736;2023-02-04T03:58:03;8.97;;;2.83;;
12267;SDS011;6196;48.398;11.736;2023-02-04T04:00:30;4.93;;;1.93;;
12267;SDS011;6196;48.398;11.736;2023-02-04T04:02:58;8.17;;;2.53;;
12267;SDS011;6196;48.398;11.736;2023-02-04T04:05:25;8.17;;;2.23;;
12267;SDS011;6196;48.398;11.736;2023-02-04T04:07:53;6.83;;;2.30;;
12267;SDS011;6196;48.398;11.736;2023-02-04T04:10:20;8.23;;;2.20;;
12267;SDS011;6196;48.398;11.736;2023-02-04T04:12:47;8.93;;;2.27;;
12267;SDS011;6196;48.398;11.736;2023-02-04T04:15:14;8.63;;;2.20;;
12267;SDS011;6196;48.398;11.736;2023-02-04T04:17:41;8.47;;;2.70;;
12267;SDS011;6196;48.398;11.736;2023-02-04T04:20:08;8.30;;;2.50;;
12267;SDS011;6196;48.398;11.736;2023-02-04T04:22:36;10.40;;;3.00;;
12267;SDS011;6196;48.398;11.736;2023-02-04T04:25:03;10.90;;;3.67;;
12267;SDS011;6196;48.398;11.736;2023-02-04T04:27:30;11.50;;;3.20;;
12267;SDS011;6196;48.398;11.736;2023-02-04T04:29:57;11.53;;;3.00;;
12267;SDS011;6196;48.398;11.736;2023-02-04T04:32:24;10.03;;;2.57;;
12267;SDS011;6196;48.398;11.736;2023-02-04T04:34:51;12.07;;;3.20;;
12267;SDS011;6196;48.398;11.736;2023-02-04T04:37:18;7.83;;;2.73;;
12267;SDS011;6196;48.398;11.736;2023-02-04T04:39:45;11.60;;;3.13;;
12267;SDS011;6196;48.398;11.736;2023-02-04T04:42:11;11.90;;;3.43;;
12267;SDS011;6196;48.398;11.736;2023-02-04T04:44:38;9.53;;;2.93;;
12267;SDS011;6196;48.398;11.736;2023-02-04T04:47:05;10.37;;;3.23;;
12267;SDS011;6196;48.398;11.736;2023-02-04T04:49:32;10.60;;;2.87;;
12267;SDS011;6196;48.398;11.736;2023-02-04T04:51:59;8.87;;;3.07;;
12267;SDS011;6196;48.398;11.736;2023-02-04T04:54:26;8.17;;;3.20;;
12267;SDS011;6196;48.398;11.736;2023-02-04T04:56:52;9.67;;;3.20;;
12267;SDS011;6196;48.398;11.736;2023-02-04T04:59:19;9.97;;;2.97;;
12267;SDS011;6196;48.398;11.736;2023-02-04T05:01:46;10.07;;;2.53;;
12267;SDS011;6196;48.398;11.736;2023-02-04T05:04:13;11.00;;;3.50;;
12267;SDS011;6196;48.398;11.736;2023-02-04T05:06:40;8.23;;;2.80;;
12267;SDS011;6196;48.398;11.736;2023-02-04T05:09:07;12.67;;;3.27;;
12267;SDS011;6196;48.398;11.736;2023-02-04T05:11:34;9.17;;;2.57;;
12267;SDS011;6196;48.398;11.736;2023-02-04T05:14:01;7.83;;;2.80;;
12267;SDS011;6196;48.398;11.736;2023-02-04T05:16:28;10.00;;;3.20;;
12267;SDS011;6196;48.398;11.736;2023-02-04T05:18:55;10.30;;;3.53;;
12267;SDS011;6196;48.398;11.736;2023-02-04T05:21:22;6.87;;;2.73;;
12267;SDS011;6196;48.398;11.736;2023-02-04T05:23:49;10.03;;;3.33;;
12267;SDS011;6196;48.398;11.736;2023-02-04T05:26:16;10.03;;;3.00;;
12267;SDS011;6196;48.398;11.736;2023-02-04T05:28:55;12.27;;;2.97;;
12267;SDS011;6196;48.398;11.736;2023-02-04T05:31:22;10.90;;;2.93;;
12267;SDS011;6196;48.398;11.736;2023-02-04T05:33:49;7.67;;;2.40;;
12267;SDS011;6196;48.398;11.736;2023-02-04T05:36:16;11.20;;;2.83;;
12267;SDS011;6196;48.398;11.736;2023-02-04T05:38:43;11.30;;;2.90;;
12267;SDS011;6196;48.398;11.736;2023-02-04T05:41:09;12.13;;;3.33;;
12267;SDS011;6196;48.398;11.736;2023-02-04T05:43:37;11.90;;;2.80;;
12267;SDS011;6196;48.398;11.736;2023-02-04T05:46:05;8.40;;;2.70;;
12267;SDS011;6196;48.398;11.736;2023-02-04T05:48:31;15.30;;;3.40;;
12267;SDS011;6196;48.398;11.736;2023-02-04T05:50:58;10.30;;;3.20;;
12267;SDS011;6196;48.398;11.736;2023-02-04T05:53:25;11.50;;;3.40;;
12267;SDS011;6196;48.398;11.736;2023-02-04T05:55:52;13.57;;;3.27;;
12267;SDS011;6196;48.398;11.736;2023-02-04T05:58:19;8.30;;;3.20;;
12267;SDS011;6196;48.398;11.736;2023-02-04T06:00:46;9.00;;;3.03;;
12267;SDS011;6196;48.398;11.736;2023-02-04T06:03:13;9.07;;;2.60;;
12267;SDS011;6196;48.398;11.736;2023-02-04T06:05:40;9.60;;;2.90;;
12267;SDS011;6196;48.398;11.736;2023-02-04T06:08:06;10.83;;;2.70;;
12267;SDS011;6196;48.398;11.736;2023-02-04T06:10:33;10.70;;;2.90;;
12267;SDS011;6196;48.398;11.736;2023-02-04T06:13:00;8.87;;;2.83;;
12267;SDS011;6196;48.398;11.736;2023-02-04T06:15:27;10.07;;;2.87;;
12267;SDS011;6196;48.398;11.736;2023-02-04T06:17:54;9.87;;;2.83;;
12267;SDS011;6196;48.398;11.736;2023-02-04T06:20:21;9.17;;;2.47;;
12267;SDS011;6196;48.398;11.736;2023-02-04T06:22:48;6.23;;;2.13;;
12267;SDS011;6196;48.398;11.736;2023-02-04T06:25:17;9.67;;;2.83;;
12267;SDS011;6196;48.398;11.736;2023-02-04T06:27:44;8.47;;;3.17;;
12267;SDS011;6196;48.398;11.736;2023-02-04T06:30:11;9.63;;;2.67;;
12267;SDS011;6196;48.398;11.736;2023-02-04T06:32:39;9.10;;;2.60;;
12267;SDS011;6196;48.398;11.736;2023-02-04T06:35:06;10.33;;;2.77;;
12267;SDS011;6196;48.398;11.736;2023-02-04T06:37:34;9.40;;;3.03;;
12267;SDS011;6196;48.398;11.736;2023-02-04T06:40:01;12.33;;;2.93;;
12267;SDS011;6196;48.398;11.736;2023-02-04T06:42:28;5.73;;;2.27;;
12267;SDS011;6196;48.398;11.736;2023-02-04T06:44:55;12.57;;;2.90;;
12267;SDS011;6196;48.398;11.736;2023-02-04T06:47:22;7.10;;;2.87;;
12267;SDS011;6196;48.398;11.736;2023-02-04T06:49:49;8.37;;;2.40;;
12267;SDS011;6196;48.398;11.736;2023-02-04T06:52:15;9.30;;;2.97;;
12267;SDS011;6196;48.398;11.736;2023-02-04T06:54:42;10.57;;;2.50;;
12267;SDS011;6196;48.398;11.736;2023-02-04T06:57:09;10.17;;;2.87;;
12267;SDS011;6196;48.398;11.736;2023-02-04T06:59:38;9.93;;;3.10;;
12267;SDS011;6196;48.398;11.736;2023-02-04T07:02:06;12.17;;;2.60;;
12267;SDS011;6196;48.398;11.736;2023-02-04T07:04:34;5.30;;;2.10;;
12267;SDS011;6196;48.398;11.736;2023-02-04T07:07:00;10.53;;;2.60;;
12267;SDS011;6196;48.398;11.736;2023-02-04T07:09:28;11.60;;;2.80;;
12267;SDS011;6196;48.398;11.736;2023-02-04T07:11:54;8.07;;;2.50;;
12267;SDS011;6196;48.398;11.736;2023-02-04T07:14:21;8.77;;;2.30;;
12267;SDS011;6196;48.398;11.736;2023-02-04T07:16:48;6.63;;;2.20;;
12267;SDS011;6196;48.398;11.736;2023-02-04T07:19:15;9.40;;;2.40;;
12267;SDS011;6196;48.398;11.736;2023-02-04T07:21:43;7.57;;;2.60;;
12267;SDS011;6196;48.398;11.736;2023-02-04T07:24:10;12.20;;;2.70;;
12267;SDS011;6196;48.398;11.736;2023-02-04T07:26:37;7.93;;;2.47;;
12267;SDS011;6196;48.398;11.736;2023-02-04T07:29:04;10.93;;;2.33;;
12267;SDS011;6196;48.398;11.736;2023-02-04T07:31:37;8.17;;;2.13;;
12267;SDS011;6196;48.398;11.736;2023-02-04T07:34:04;11.30;;;2.13;;
12267;SDS011;6196;48.398;11.736;2023-02-04T07:36:31;9.37;;;2.63;;
12267;SDS011;6196;48.398;11.736;2023-02-04T07:38:58;8.37;;;2.60;;
12267;SDS011;6196;48.398;11.736;2023-02-04T07:41:25;7.50;;;2.50;;
12267;SDS011;6196;48.398;11.736;2023-02-04T07:43:52;9.47;;;2.47;;
12267;SDS011;6196;48.398;11.736;2023-02-04T07:46:18;10.70;;;2.30;;
12267;SDS011;6196;48.398;11.736;2023-02-04T07:48:45;7.60;;;2.40;;
12267;SDS011;6196;48.398;11.736;2023-02-04T07:51:12;8.27;;;2.70;;
12267;SDS011;6196;48.398;11.736;2023-02-04T07:53:39;10.27;;;2.83;;
12267;SDS011;6196;48.398;11.736;2023-02-04T07:56:06;9.53;;;2.13;;
12267;SDS011;6196;48.398;11.736;2023-02-04T07:58:33;10.03;;;2.70;;
12267;SDS011;6196;48.398;11.736;2023-02-04T08:01:00;6.70;;;2.00;;
12267;SDS011;6196;48.398;11.736;2023-02-04T08:03:27;8.97;;;2.67;;
12267;SDS011;6196;48.398;11.736;2023-02-04T08:05:54;8.10;;;2.60;;
12267;SDS011;6196;48.398;11.736;2023-02-04T08:08:21;7.33;;;2.50;;
12267;SDS011;6196;48.398;11.736;2023-02-04T08:10:48;7.03;;;2.40;;
12267;SDS011;6196;48.398;11.736;2023-02-04T08:13:15;8.63;;;2.30;;
12267;SDS011;6196;48.398;11.736;2023-02-04T08:15:42;9.80;;;2.70;;
12267;SDS011;6196;48.398;11.736;2023-02-04T08:18:09;7.13;;;2.20;;
12267;SDS011;6196;48.398;11.736;2023-02-04T08:20:36;10.30;;;2.57;;
12267;SDS011;6196;48.398;11.736;2023-02-04T08:23:02;5.70;;;2.40;;
12267;SDS011;6196;48.398;11.736;2023-02-04T08:25:29;8.83;;;2.53;;
12267;SDS011;6196;48.398;11.736;2023-02-04T08:27:56;7.77;;;2.20;;
12267;SDS011;6196;48.398;11.736;2023-02-04T08:30:23;8.37;;;2.60;;
12267;SDS011;6196;48.398;11.736;2023-02-04T08:32:50;6.80;;;2.30;;
12267;SDS011;6196;48.398;11.736;2023-02-04T08:35:17;5.80;;;2.07;;
12267;SDS011;6196;48.398;11.736;2023-02-04T08:37:44;5.97;;;2.63;;
12267;SDS011;6196;48.398;11.736;2023-02-04T08:40:11;8.57;;;2.80;;
12267;SDS011;6196;48.398;11.736;2023-02-04T08:42:38;6.37;;;1.90;;
12267;SDS011;6196;48.398;11.736;2023-02-04T08:45:05;6.50;;;2.10;;
12267;SDS011;6196;48.398;11.736;2023-02-04T08:47:32;8.33;;;2.20;;
12267;SDS011;6196;48.398;11.736;2023-02-04T08:49:59;9.57;;;1.93;;
12267;SDS011;6196;48.398;11.736;2023-02-04T08:52:26;8.13;;;2.67;;
12267;SDS011;6196;48.398;11.736;2023-02-04T08:54:53;8.43;;;1.77;;
12267;SDS011;6196;48.398;11.736;2023-02-04T08:57:19;2.87;;;1.13;;
12267;SDS011;6196;48.398;11.736;2023-02-04T08:59:46;1.27;;;0.63;;
12267;SDS011;6196;48.398;11.736;2023-02-04T09:02:13;3.20;;;0.70;;
12267;SDS011;6196;48.398;11.736;2023-02-04T09:04:40;2.73;;;0.67;;
12267;SDS011;6196;48.398;11.736;2023-02-04T09:07:07;2.33;;;0.90;;
12267;SDS011;6196;48.398;11.736;2023-02-04T09:09:34;2.40;;;0.70;;
12267;SDS011;6196;48.398;11.736;2023-02-04T09:12:01;5.13;;;0.80;;
12267;SDS011;6196;48.398;11.736;2023-02-04T09:14:28;2.63;;;1.10;;
12267;SDS011;6196;48.398;11.736;2023-02-04T09:16:55;2.63;;;0.83;;
12267;SDS011;6196;48.398;11.736;2023-02-04T09:19:22;2.67;;;0.90;;
12267;SDS011;6196;48.398;11.736;2023-02-04T09:21:51;1.93;;;0.83;;
12267;SDS011;6196;48.398;11.736;2023-02-04T09:24:19;2.70;;;0.73;;
12267;SDS011;6196;48.398;11.736;2023-02-04T09:26:48;1.33;;;0.80;;
12267;SDS011;6196;48.398;11.736;2023-02-04T09:29:15;1.80;;;0.80;;
12267;SDS011;6196;48.398;11.736;2023-02-04T09:31:42;2.50;;;1.00;;
12267;SDS011;6196;48.398;11.736;2023-02-04T09:34:09;2.97;;;0.90;;
12267;SDS011;6196;48.398;11.736;2023-02-04T09:36:36;1.00;;;0.57;;
12267;SDS011;6196;48.398;11.736;2023-02-04T09:39:04;1.80;;;0.70;;
12267;SDS011;6196;48.398;11.736;2023-02-04T09:41:32;2.50;;;1.10;;
12267;SDS011;6196;48.398;11.736;2023-02-04T09:44:00;0.97;;;0.70;;
12267;SDS011;6196;48.398;11.736;2023-02-04T09:46:29;1.93;;;0.87;;
12267;SDS011;6196;48.398;11.736;2023-02-04T09:48:58;2.80;;;0.80;;
12267;SDS011;6196;48.398;11.736;2023-02-04T09:51:26;1.30;;;0.80;;
12267;SDS011;6196;48.398;11.736;2023-02-04T09:54:02;2.07;;;1.03;;
12267;SDS011;6196;48.398;11.736;2023-02-04T09:56:44;3.53;;;1.00;;
12267;SDS011;6196;48.398;11.736;2023-02-04T09:59:12;2.60;;;1.00;;
12267;SDS011;6196;48.398;11.736;2023-02-04T10:01:54;1.97;;;0.80;;
12267;SDS011;6196;48.398;11.736;2023-02-04T10:04:26;1.30;;;0.90;;
12267;SDS011;6196;48.398;11.736;2023-02-04T10:06:54;3.13;;;1.10;;
12267;SDS011;6196;48.398;11.736;2023-02-04T10:09:24;1.90;;;0.90;;
12267;SDS011;6196;48.398;11.736;2023-02-04T10:11:51;2.90;;;0.90;;
12267;SDS011;6196;48.398;11.736;2023-02-04T10:14:18;1.27;;;0.77;;
12267;SDS011;6196;48.398;11.736;2023-02-04T10:16:57;1.87;;;1.00;;
12267;SDS011;6196;48.398;11.736;2023-02-04T10:19:27;1.87;;;0.80;;
12267;SDS011;6196;48.398;11.736;2023-02-04T10:21:55;1.97;;;0.90;;
12267;SDS011;6196;48.398;11.736;2023-02-04T10:24:23;2.40;;;0.90;;
12267;SDS011;6196;48.398;11.736;2023-02-04T10:26:52;1.63;;;1.03;;
12267;SDS011;6196;48.398;11.736;2023-02-04T10:29:20;1.47;;;0.90;;
12267;SDS011;6196;48.398;11.736;2023-02-04T10:31:50;0.77;;;0.77;;
12267;SDS011;6196;48.398;11.736;2023-02-04T10:36:48;2.00;;;0.90;;
12267;SDS011;6196;48.398;11.736;2023-02-04T10:39:21;1.13;;;0.70;;
12267;SDS011;6196;48.398;11.736;2023-02-04T10:41:52;0.83;;;0.70;;
12267;SDS011;6196;48.398;11.736;2023-02-04T10:44:26;2.23;;;0.90;;
12267;SDS011;6196;48.398;11.736;2023-02-04T10:46:58;0.70;;;0.70;;
12267;SDS011;6196;48.398;11.736;2023-02-04T10:50:06;0.87;;;0.70;;
12267;SDS011;6196;48.398;11.736;2023-02-04T10:52:44;2.20;;;0.87;;
12267;SDS011;6196;48.398;11.736;2023-02-04T10:55:21;1.30;;;0.77;;
12267;SDS011;6196;48.398;11.736;2023-02-04T10:57:50;1.33;;;0.80;;
12267;SDS011;6196;48.398;11.736;2023-02-04T11:00:19;1.37;;;0.70;;
12267;SDS011;6196;48.398;11.736;2023-02-04T11:05:30;4.70;;;2.93;;
12267;SDS011;6196;48.398;11.736;2023-02-04T11:08:01;5.80;;;3.53;;
12267;SDS011;6196;48.398;11.736;2023-02-04T11:10:58;3.03;;;1.90;;
12267;SDS011;6196;48.398;11.736;2023-02-04T11:16:10;1.13;;;0.70;;
12267;SDS011;6196;48.398;11.736;2023-02-04T11:26:42;0.50;;;0.50;;
12267;SDS011;6196;48.398;11.736;2023-02-04T11:39:42;0.60;;;0.60;;
12267;SDS011;6196;48.398;11.736;2023-02-04T11:45:10;0.80;;;0.80;;
12267;SDS011;6196;48.398;11.736;2023-02-04T11:47:40;1.00;;;0.90;;
12267;SDS011;6196;48.398;11.736;2023-02-04T11:50:25;1.47;;;0.80;;
12267;SDS011;6196;48.398;11.736;2023-02-04T11:52:58;1.50;;;0.80;;
12267;SDS011;6196;48.398;11.736;2023-02-04T11:55:28;0.97;;;0.80;;
12267;SDS011;6196;48.398;11.736;2023-02-04T11:57:56;1.00;;;0.63;;
12267;SDS011;6196;48.398;11.736;2023-02-04T12:00:25;0.80;;;0.60;;
12267;SDS011;6196;48.398;11.736;2023-02-04T12:02:59;1.00;;;0.80;;
12267;SDS011;6196;48.398;11.736;2023-02-04T12:05:40;1.00;;;0.77;;
12267;SDS011;6196;48.398;11.736;2023-02-04T12:08:10;0.80;;;0.70;;
12267;SDS011;6196;48.398;11.736;2023-02-04T12:13:47;1.43;;;0.60;;
12267;SDS011;6196;48.398;11.736;2023-02-04T12:16:17;1.63;;;0.90;;
12267;SDS011;6196;48.398;11.736;2023-02-04T12:18:44;0.83;;;0.50;;
12267;SDS011;6196;48.398;11.736;2023-02-04T12:21:11;1.00;;;0.50;;
12267;SDS011;6196;48.398;11.736;2023-02-04T12:23:39;1.10;;;0.67;;
12267;SDS011;6196;48.398;11.736;2023-02-04T12:26:10;1.17;;;0.87;;
12267;SDS011;6196;48.398;11.736;2023-02-04T12:28:37;1.87;;;0.73;;
12267;SDS011;6196;48.398;11.736;2023-02-04T12:31:05;0.90;;;0.60;;
12267;SDS011;6196;48.398;11.736;2023-02-04T12:33:32;1.43;;;0.87;;
12267;SDS011;6196;48.398;11.736;2023-02-04T12:35:58;1.20;;;0.90;;
12267;SDS011;6196;48.398;11.736;2023-02-04T12:38:25;0.50;;;0.50;;
12267;SDS011;6196;48.398;11.736;2023-02-04T12:40:53;0.87;;;0.50;;
12267;SDS011;6196;48.398;11.736;2023-02-04T12:43:20;0.93;;;0.60;;
12267;SDS011;6196;48.398;11.736;2023-02-04T12:45:47;0.47;;;0.40;;
12267;SDS011;6196;48.398;11.736;2023-02-04T12:48:15;1.90;;;0.60;;
12267;SDS011;6196;48.398;11.736;2023-02-04T12:50:42;0.37;;;0.37;;
12267;SDS011;6196;48.398;11.736;2023-02-04T12:53:09;0.90;;;0.60;;
12267;SDS011;6196;48.398;11.736;2023-02-04T12:55:36;1.23;;;0.50;;
12267;SDS011;6196;48.398;11.736;2023-02-04T12:58:03;0.90;;;0.50;;
12267;SDS011;6196;48.398;11.736;2023-02-04T13:00:30;0.80;;;0.50;;
12267;SDS011;6196;48.398;11.736;2023-02-04T13:02:57;2.17;;;1.70;;
12267;SDS011;6196;48.398;11.736;2023-02-04T13:05:24;17.77;;;11.40;;
12267;SDS011;6196;48.398;11.736;2023-02-04T13:07:52;2.73;;;2.10;;
12267;SDS011;6196;48.398;11.736;2023-02-04T13:10:19;1.50;;;1.40;;
12267;SDS011;6196;48.398;11.736;2023-02-04T13:12:47;2.13;;;1.40;;
12267;SDS011;6196;48.398;11.736;2023-02-04T13:15:14;2.67;;;2.27;;
12267;SDS011;6196;48.398;11.736;2023-02-04T13:17:41;3.30;;;2.57;;
12267;SDS011;6196;48.398;11.736;2023-02-04T13:20:08;2.83;;;2.57;;
12267;SDS011;6196;48.398;11.736;2023-02-04T13:22:36;2.00;;;1.80;;
12267;SDS011;6196;48.398;11.736;2023-02-04T13:25:02;1.53;;;1.43;;
12267;SDS011;6196;48.398;11.736;2023-02-04T13:27:30;1.40;;;1.30;;
12267;SDS011;6196;48.398;11.736;2023-02-04T13:29:57;1.30;;;1.20;;
12267;SDS011;6196;48.398;11.736;2023-02-04T13:32:24;1.03;;;0.90;;
12267;SDS011;6196;48.398;11.736;2023-02-04T13:34:51;0.90;;;0.70;;
12267;SDS011;6196;48.398;11.736;2023-02-04T13:37:18;1.37;;;1.27;;
12267;SDS011;6196;48.398;11.736;2023-02-04T13:39:45;0.57;;;0.57;;
12267;SDS011;6196;48.398;11.736;2023-02-04T13:42:11;0.50;;;0.50;;
12267;SDS011;6196;48.398;11.736;2023-02-04T13:44:38;0.70;;;0.50;;
12267;SDS011;6196;48.398;11.736;2023-02-04T13:47:05;1.10;;;0.70;;
12267;SDS011;6196;48.398;11.736;2023-02-04T13:49:32;0.60;;;0.60;;
12267;SDS011;6196;48.398;11.736;2023-02-04T13:51:59;0.53;;;0.50;;
12267;SDS011;6196;48.398;11.736;2023-02-04T13:54:26;0.60;;;0.53;;
12267;SDS011;6196;48.398;11.736;2023-02-04T13:56:53;0.53;;;0.53;;
12267;SDS011;6196;48.398;11.736;2023-02-04T13:59:20;0.60;;;0.60;;
12267;SDS011;6196;48.398;11.736;2023-02-04T14:01:47;1.37;;;0.50;;
12267;SDS011;6196;48.398;11.736;2023-02-04T14:04:14;0.77;;;0.77;;
12267;SDS011;6196;48.398;11.736;2023-02-04T14:06:41;0.73;;;0.60;;
12267;SDS011;6196;48.398;11.736;2023-02-04T14:09:10;0.83;;;0.50;;
12267;SDS011;6196;48.398;11.736;2023-02-04T14:11:38;0.77;;;0.60;;
12267;SDS011;6196;48.398;11.736;2023-02-04T14:14:05;0.67;;;0.50;;
12267;SDS011;6196;48.398;11.736;2023-02-04T14:16:32;0.40;;;0.40;;
12267;SDS011;6196;48.398;11.736;2023-02-04T14:19:02;0.60;;;0.60;;
12267;SDS011;6196;48.398;11.736;2023-02-04T14:21:30;0.70;;;0.60;;
12267;SDS011;6196;48.398;11.736;2023-02-04T14:23:58;0.97;;;0.60;;
12267;SDS011;6196;48.398;11.736;2023-02-04T14:26:25;0.83;;;0.60;;
12267;SDS011;6196;48.398;11.736;2023-02-04T14:28:52;0.70;;;0.50;;
12267;SDS011;6196;48.398;11.736;2023-02-04T14:31:19;0.50;;;0.50;;
12267;SDS011;6196;48.398;11.736;2023-02-04T14:33:46;0.97;;;0.60;;
12267;SDS011;6196;48.398;11.736;2023-02-04T14:36:15;0.60;;;0.60;;
12267;SDS011;6196;48.398;11.736;2023-02-04T14:38:42;1.00;;;0.70;;
12267;SDS011;6196;48.398;11.736;2023-02-04T14:41:09;0.77;;;0.50;;
12267;SDS011;6196;48.398;11.736;2023-02-04T14:43:41;0.70;;;0.60;;
12267;SDS011;6196;48.398;11.736;2023-02-04T14:46:08;1.20;;;0.80;;
12267;SDS011;6196;48.398;11.736;2023-02-04T14:48:35;0.53;;;0.53;;
12267;SDS011;6196;48.398;11.736;2023-02-04T14:51:02;0.70;;;0.60;;
12267;SDS011;6196;48.398;11.736;2023-02-04T14:53:29;0.63;;;0.63;;
12267;SDS011;6196;48.398;11.736;2023-02-04T14:55:56;0.90;;;0.60;;
12267;SDS011;6196;48.398;11.736;2023-02-04T14:58:23;2.47;;;0.80;;
12267;SDS011;6196;48.398;11.736;2023-02-04T15:00:53;0.77;;;0.67;;
12267;SDS011;6196;48.398;11.736;2023-02-04T15:03:20;2.90;;;0.70;;
12267;SDS011;6196;48.398;11.736;2023-02-04T15:05:47;1.13;;;0.63;;
12267;SDS011;6196;48.398;11.736;2023-02-04T15:08:13;0.70;;;0.70;;
12267;SDS011;6196;48.398;11.736;2023-02-04T15:10:40;1.07;;;0.80;;
12267;SDS011;6196;48.398;11.736;2023-02-04T15:13:07;2.13;;;0.63;;
12267;SDS011;6196;48.398;11.736;2023-02-04T15:15:34;0.97;;;0.80;;
12267;SDS011;6196;48.398;11.736;2023-02-04T15:18:01;0.63;;;0.60;;
12267;SDS011;6196;48.398;11.736;2023-02-04T15:20:28;1.00;;;0.60;;
12267;SDS011;6196;48.398;11.736;2023-02-04T15:22:54;1.90;;;0.90;;
12267;SDS011;6196;48.398;11.736;2023-02-04T15:25:22;1.20;;;0.67;;